Live≪ 1ère Foulées Jeumontoises 2016 ≫

Le 17/04/2016 Attention événement 2015 !!! Calendrier 2017



Astuce pour faire une recherche facilement: "CTRL + F"

Choix de la course:
10km (10.000 Km)
5km (5.000 Km)

10km
Clt Athlète Club Temps Sexe Cat. Pt inter 1 Pt inter 2 Pt inter 3
1 13 BENKHENDDA Mohamed 00:31:37 M (1e) Senior (1e) 00:05:00 (2) 00:18:02 (1) 00:31:19 (1) Partagez votre performance
2 149 NIGAUT Willy ENTENTE SAMBRE AVESNOIS 59 00:32:03 M (2e) Senior (2e) 00:05:00 (1) 00:18:04 (2) 00:31:44 (2) Partagez votre performance
3 156 PHILIPPE Jocelyn ENTENTE SAMBRE AVESNOIS 59 00:33:49 M (3e) Senior (3e) 00:05:00 (3) 00:19:08 (3) 00:33:29 (3) Partagez votre performance
4 44 CUISSET Alain ENTENTE SAMBRE AVESNOIS 59 00:34:39 M (4e) Master (1e) 00:05:20 (4) 00:19:42 (4) 00:34:19 (4) Partagez votre performance
5 165 POULET Stephane ENTENTE SAMBRE AVESNOIS 59 00:35:00 M (5e) Master (2e) 00:05:28 (10) 00:20:05 (5) 00:34:40 (5) Partagez votre performance
6 178 SEMSAR Ghiles ENTENTE SAMBRE AVESNOIS 59 00:35:18 M (6e) Cadet (1e) 00:05:24 (6) 00:20:05 (6) 00:34:58 (6) Partagez votre performance
7 114 LECLERE Charly 00:35:41 M (7e) Senior (4e) 00:05:22 (5) 00:20:18 (8) 00:35:21 (7) Partagez votre performance
8 176 SAIDIA Fathi MAUBEUGE MARATHON 00:35:55 M (8e) Master (3e) 00:05:25 (7) 00:20:17 (7) 00:35:31 (8) Partagez votre performance
9 160 PLUST Romain 00:36:09 M (9e) Senior (5e) 00:05:28 (9) 00:20:30 (9) 00:35:50 (9) Partagez votre performance
10 82 ERRANI Ismail BOXE LOUVROIL 00:36:49 M (10e) Master (4e) 00:05:41 (13) 00:20:49 (10) 00:36:27 (10) Partagez votre performance
11 157 PHILIPPE Maxime ENTENTE SAMBRE AVESNOIS 59 00:36:57 M (11e) Senior (6e) 00:05:28 (11) 00:20:53 (11) 00:36:37 (11) Partagez votre performance
12 92 GREGOIRE Bruno MAUBEUGE MARATHON 00:37:49 M (12e) Master (5e) 00:05:39 (12) 00:21:15 (12) 00:37:27 (12) Partagez votre performance
13 141 MESSAOUDI Yacine 00:38:06 M (13e) Cadet (2e) 00:05:25 (8) 00:21:34 (13) 00:37:47 (13) Partagez votre performance
14 110 LAHOULI Anis 00:38:07 M (14e) Cadet (3e) 00:05:47 (14) 00:21:54 (15) 00:37:51 (14) Partagez votre performance
15 121 LESAGE Mathieu MAUBEUGE MARATHON 00:38:20 M (15e) Senior (7e) 00:05:49 (16) 00:21:54 (14) 00:37:58 (15) Partagez votre performance
16 34 CERNIGA Olivier M C A 00:38:20 M (16e) Master (6e) 00:07:08 (78) 00:26:48 (81) 00:47:40 (89) Partagez votre performance
17 100 HOUDELETTE Pascal MAUBEUGE MARATHON 00:38:33 M (17e) Master (7e) 00:06:36 (47) 00:22:21 (19) 00:38:10 (16) Partagez votre performance
18 109 KOPER Julien 00:39:04 M (18e) Senior (8e) 00:05:54 (17) 00:22:12 (18) 00:38:43 (17) Partagez votre performance
19 112 LAMACQ Didier ENTENTE SAMBRE AVESNOIS 59 00:39:14 M (19e) Master (8e) 00:05:55 (18) 00:22:11 (17) 00:38:50 (18) Partagez votre performance
20 353 KHERBA Abdellah 00:39:18 M (20e) Master (9e) 00:05:48 (15) 00:22:00 (16) 00:38:55 (19) Partagez votre performance
21 49 D'ANGELO Simon 00:39:29 M (21e) Senior (9e) 00:06:26 (37) 00:22:51 (24) 00:39:10 (20) Partagez votre performance
22 74 DURIEUX Karl 00:39:40 M (22e) Master (10e) 00:05:59 (20) 00:22:25 (20) 00:39:15 (21) Partagez votre performance
23 174 ROUSSEAU Raymond ENDURANCE PONTOISE 00:39:53 M (23e) Master (11e) 00:05:55 (19) 00:22:32 (21) 00:39:28 (22) Partagez votre performance
24 106 KADDOUR Omar 00:40:00 M (24e) Senior (10e) 00:06:06 (25) 00:22:46 (23) 00:39:37 (23) Partagez votre performance
25 72 DUHAMEL Sandrine ENTENTE SAMBRE AVESNOIS 59 00:40:01 F (1e) Master (1e) 00:06:18 (30) 00:22:56 (25) 00:39:38 (24) Partagez votre performance
26 33 CATHERINE Aurelien ENDURANCE PONTOISE 00:40:08 M (25e) Senior (11e) 00:06:02 (23) 00:22:39 (22) 00:39:46 (25) Partagez votre performance
27 188 VERHAEGHE Edouard TMMF 00:40:29 M (26e) Senior (12e) 00:06:00 (22) 00:23:01 (28) 00:40:07 (27) Partagez votre performance
28 20 BOULEAU Cedric ENTENTE SAMBRE AVESNOIS 59 00:40:30 M (27e) Senior (13e) 00:06:15 (27) 00:23:05 (30) 00:40:02 (26) Partagez votre performance
29 60 DEVILLERS Jimmy 00:40:33 M (28e) Senior (14e) 00:06:26 (38) 00:23:23 (38) 00:40:11 (28) Partagez votre performance
30 51 DELCAMBRE Alexandre BOXE LOUVROIL 00:40:35 M (29e) Junior (1e) 00:06:21 (31) 00:23:22 (36) 00:40:14 (30) Partagez votre performance
31 137 MAYEUX Franck M C A 00:40:49 M (30e) Master (12e) 00:06:22 (32) 00:23:01 (29) 00:40:24 (31) Partagez votre performance
32 53 DELL'ACQUA Jauffrey PASS'RUNNING 00:40:52 M (31e) Senior (15e) 00:06:24 (35) 00:23:21 (34) 00:40:27 (32) Partagez votre performance
33 37 COPY Francine ENTENTE SAMBRE AVESNOIS 59 00:41:00 F (2e) Master (2e) 00:06:18 (29) 00:23:08 (31) 00:40:36 (33) Partagez votre performance
34 23 BRIASTRE Stephane 00:41:04 M (32e) Master (13e) 00:06:15 (28) 00:23:18 (33) 00:40:40 (34) Partagez votre performance
35 352 BIRROU Calade 00:41:08 M (33e) Senior (16e) 00:06:22 (33) 00:23:23 (37) 00:40:42 (35) Partagez votre performance
36 120 LEROY Johnny MAUBEUGE MARATHON 00:41:10 M (34e) Master (14e) 00:06:22 (34) 00:23:44 (40) 00:40:47 (36) Partagez votre performance
37 127 MAKRAF Belkacem BOXE LOUVROIL 00:41:14 M (35e) Master (15e) 00:06:25 (36) 00:23:38 (39) 00:40:50 (38) Partagez votre performance
38 104 JORIS Franck MAUBEUGE MARATHON 00:41:16 M (36e) Master (16e) 00:06:30 (40) 00:23:45 (41) 00:40:50 (37) Partagez votre performance
39 126 LUEZ Hervé 00:41:32 M (37e) Master (17e) 00:06:06 (24) 00:23:08 (32) 00:40:59 (39) Partagez votre performance
40 108 KHALFI Lotfi 00:41:41 M (38e) Master (18e) 00:06:11 (26) 00:22:56 (26) 00:41:14 (40) Partagez votre performance
41 195 ZEHKNIN Younes BOXE LOUVROIL 00:42:04 M (39e) Cadet (4e) 00:06:00 (21) 00:23:22 (35) 00:41:29 (41) Partagez votre performance
42 43 CROCHET Guillaume 00:42:04 M (40e) Senior (17e) 00:06:43 (51) 00:24:23 (46) 00:41:41 (42) Partagez votre performance
43 9 ANGOT Kevin MAUBEUGE MARATHON 00:42:18 M (41e) Senior (18e) 00:06:31 (42) 00:23:53 (42) 00:41:54 (43) Partagez votre performance
44 36 CLEMENT Christian MAUBEUGE MARATHON 00:42:28 M (42e) Master (19e) 00:06:56 (63) 00:24:25 (47) 00:42:03 (45) Partagez votre performance
45 8 ANGOT Jean pierre MAUBEUGE MARATHON 00:42:29 M (43e) Master (20e) 00:06:33 (44) 00:24:12 (44) 00:42:03 (44) Partagez votre performance
46 4 ALDERWEIRELDT Vincent ENTENTE SAMBRE AVESNOIS 59 00:42:33 M (44e) Master (21e) 00:07:00 (69) 00:24:38 (51) 00:42:07 (46) Partagez votre performance
47 93 GUERRIER Franck M C A 00:42:35 M (45e) Master (22e) 00:06:38 (48) 00:24:08 (43) 00:42:10 (47) Partagez votre performance
48 17 BOSQUET Angelique MAUBEUGE MARATHON 00:42:46 F (3e) Master (3e) 00:06:33 (45) 00:24:13 (45) 00:42:20 (48) Partagez votre performance
49 27 CANIVEZ Fabrice M C A 00:42:57 M (46e) Master (23e) 00:06:54 (58) 00:24:38 (52) 00:42:30 (49) Partagez votre performance
50 78 ENGSTER Jean charles MAUBEUGE MARATHON 00:43:10 M (47e) Master (24e) 00:06:52 (57) 00:24:40 (53) 00:42:46 (50) Partagez votre performance
51 117 LEFROY Valerie 00:43:16 F (4e) Master (4e) 00:06:30 (41) 00:24:27 (49) 00:42:51 (51) Partagez votre performance
52 35 CHOINET Romaric MAUBEUGE MARATHON 00:43:19 M (48e) Senior (19e) 00:06:56 (65) 00:24:49 (56) 00:42:55 (52) Partagez votre performance
53 131 MARECHAL Jean luc MAUBEUGE MARATHON 00:43:23 M (49e) Master (25e) 00:06:55 (60) 00:24:49 (54) 00:42:57 (53) Partagez votre performance
54 47 DAMIEN Rocul 00:43:33 M (50e) Senior (20e) 00:06:39 (49) 00:24:29 (50) 00:43:09 (54) Partagez votre performance
55 59 DEPRE Boris MAUBEUGE MARATHON 00:43:36 M (51e) Senior (21e) 00:06:56 (64) 00:24:50 (57) 00:43:11 (55) Partagez votre performance
56 115 LECOQ Aurélien 00:43:49 M (52e) Senior (22e) 00:06:27 (39) 00:24:26 (48) 00:43:20 (56) Partagez votre performance
57 62 DEWEZ Mickael ENTENTE SAMBRE AVESNOIS 59 00:44:10 M (53e) Master (26e) 00:07:02 (74) 00:25:47 (62) 00:43:45 (57) Partagez votre performance
58 138 MAYEUX Jacky 00:44:10 M (54e) Master (27e) 00:06:52 (56) 00:24:49 (55) 00:43:46 (58) Partagez votre performance
59 22 BRAVIN Didier GYM SANTE 00:44:54 M (55e) Master (28e) 00:07:37 (101) 00:26:05 (67) 00:44:29 (59) Partagez votre performance
60 196 ZEKHNINI Youssef BOXE LOUVROIL 00:45:02 M (56e) Master (29e) 00:07:00 (70) 00:25:46 (60) 00:44:35 (61) Partagez votre performance
61 153 PAUTARD Michel M C A 00:45:02 M (57e) Master (30e) 00:07:02 (71) 00:25:47 (61) 00:44:35 (62) Partagez votre performance
62 77 DUVAUX Raphael DEMBIERMONT TEAM 00:45:02 M (58e) Master (31e) 00:06:51 (55) 00:25:46 (59) 00:44:34 (60) Partagez votre performance
63 84 FLANQUART Delphine MAUBEUGE MARATHON 00:45:08 F (5e) Senior (1e) 00:08:12 (124) 00:26:56 (85) 00:44:42 (64) Partagez votre performance
64 14 BERTON Alex MAUBEUGE MARATHON 00:45:09 M (59e) Senior (23e) 00:08:12 (123) 00:26:56 (84) 00:44:42 (63) Partagez votre performance
65 125 LOCQUENEUX Loic 00:45:17 M (60e) Senior (24e) 00:06:58 (66) 00:25:47 (63) 00:44:51 (65) Partagez votre performance
66 193 WIRTH Marvin 00:45:33 M (61e) Senior (25e) 00:06:33 (43) 00:26:28 (74) 00:45:11 (66) Partagez votre performance
67 61 DEWEZ Dominique ENTENTE SAMBRE AVESNOIS 59 00:45:39 F (6e) Master (5e) 00:07:00 (68) 00:25:50 (65) 00:45:12 (67) Partagez votre performance
68 101 HULIN Michael M C A 00:45:58 M (62e) Master (32e) 00:06:54 (59) 00:25:49 (64) 00:45:31 (68) Partagez votre performance
69 148 NIGAUT Angelique ENTENTE SAMBRE AVESNOIS 59 00:46:01 F (7e) Master (6e) 00:07:02 (73) 00:26:09 (68) 00:45:35 (69) Partagez votre performance
70 191 WERY Frederic 00:46:03 M (63e) Master (33e) 00:06:48 (53) 00:25:43 (58) 00:45:40 (70) Partagez votre performance
71 147 NICOLAS Dellisse 00:46:11 M (64e) Senior (26e) 00:08:07 (121) 00:27:18 (92) 00:45:44 (71) Partagez votre performance
72 102 JACOBS Marcel MAUBEUGE MARATHON 00:46:12 M (65e) Master (34e) 00:07:40 (109) 00:26:43 (79) 00:45:46 (72) Partagez votre performance
73 162 POTDEVIN Nicolas M C A 00:46:15 M (66e) Senior (27e) 00:07:16 (85) 00:26:14 (69) 00:45:49 (73) Partagez votre performance
74 152 PAGNIER Tiphaine MAUBEUGE MARATHON 00:46:36 F (8e) Espoir (1e) 00:08:12 (122) 00:27:15 (90) 00:46:09 (74) Partagez votre performance
75 42 COUVREUR Jonathan 00:46:37 M (67e) Senior (28e) 00:07:16 (87) 00:26:41 (78) 00:46:10 (75) Partagez votre performance
76 116 LEFRANC Ludovic M C A 00:46:48 M (68e) Senior (29e) 00:07:08 (75) 00:27:04 (88) 00:46:20 (76) Partagez votre performance
77 46 CUVILLIER Vincent 00:46:52 M (69e) Espoir (1e) 00:07:30 (92) 00:27:00 (87) 00:46:27 (77) Partagez votre performance
78 168 QUINZIN Kevin 00:47:04 M (70e) Senior (30e) 00:06:42 (50) 00:26:18 (70) 00:46:35 (78) Partagez votre performance
79 88 GILLOT Jonathan 00:47:13 M (71e) Senior (31e) 00:07:09 (80) 00:26:22 (71) 00:46:51 (82) Partagez votre performance
80 96 HENAUT Julien 00:47:14 M (72e) Senior (32e) 00:07:25 (91) 00:26:39 (76) 00:46:47 (79) Partagez votre performance
81 151 OULD Gilbert 00:47:16 M (73e) Master (35e) 00:07:36 (96) 00:27:00 (86) 00:46:47 (80) Partagez votre performance
82 158 PHILIPPE Michel ENTENTE SAMBRE AVESNOIS 59 00:47:20 M (74e) Master (36e) 00:07:02 (72) 00:26:28 (75) 00:46:51 (81) Partagez votre performance
83 173 ROUSSEAU Clara ENDURANCE PONTOISE 00:47:28 F (9e) Junior (1e) 00:06:48 (52) 00:26:26 (73) 00:46:59 (83) Partagez votre performance
84 124 LOBRY Olivier 00:47:30 M (75e) Senior (33e) 00:06:50 (54) 00:26:39 (77) 00:47:01 (84) Partagez votre performance
85 351 BRICOUT Romain 00:47:43 M (76e) Senior (34e) 00:07:15 (84) 00:26:45 (80) 00:47:08 (85) Partagez votre performance
86 166 POULEUR Jean paul VAC HONNELLES 00:48:01 M (77e) Master (37e) 00:07:41 (111) 00:27:41 (102) 00:47:33 (86) Partagez votre performance
87 28 CANONNE David 00:48:02 M (78e) Master (38e) 00:07:08 (77) 00:27:19 (93) 00:47:35 (87) Partagez votre performance
88 41 COUTO Manuel 00:48:09 M (79e) Master (39e) 00:07:41 (110) 00:27:40 (101) 00:47:39 (88) Partagez votre performance
89 135 MASCAUT Damien 00:48:11 M (80e) Senior (35e) 00:07:20 (88) 00:27:15 (91) 00:47:44 (91) Partagez votre performance
90 182 TEBACHE Mohamed 00:48:15 M (81e) Master (40e) 00:06:59 (67) 00:26:56 (83) 00:47:43 (90) Partagez votre performance
91 71 DUHAMEL Jean francois 00:48:19 M (82e) Master (41e) 00:07:08 (76) 00:26:48 (82) 00:47:47 (92) Partagez votre performance
92 83 EVRARD Bruno MAUBEUGE MARATHON 00:48:20 M (83e) Master (42e) 00:07:43 (112) 00:27:47 (103) 00:47:52 (93) Partagez votre performance
93 133 MARIAGE Pierre 00:48:31 M (84e) Senior (36e) 00:07:40 (108) 00:27:32 (96) 00:48:02 (94) Partagez votre performance
94 113 LECLERCQ Denis MAUBEUGE MARATHON 00:48:34 M (85e) Master (43e) 00:07:47 (114) 00:27:58 (105) 00:48:05 (95) Partagez votre performance
95 91 GRAZZI Spohie 00:48:39 F (10e) Master (7e) 00:07:20 (89) 00:27:22 (94) 00:48:10 (96) Partagez votre performance
96 69 DUFRENOIS Patrick M C A 00:48:42 M (86e) Master (44e) 00:07:08 (79) 00:27:05 (89) 00:48:13 (97) Partagez votre performance
97 187 TREBOT Jean pierre 00:48:52 M (87e) Master (45e) 00:07:31 (93) 00:27:33 (97) 00:48:22 (98) Partagez votre performance
98 73 DUPRET FICHAUX Carole ENTENTE SAMBRE AVESNOIS 59 00:49:00 F (11e) Master (8e) 00:07:39 (103) 00:27:35 (98) 00:48:28 (100) Partagez votre performance
99 86 GABELLE Sylvain 00:49:00 M (88e) Master (46e) 00:06:56 (62) 00:26:04 (66) 00:48:27 (99) Partagez votre performance
100 170 RASSAU Olivier 00:49:08 M (89e) Master (47e) 00:08:20 (132) 00:28:26 (112) 00:48:36 (101) Partagez votre performance
101 183 THIRION Frank 00:49:16 M (90e) Senior (37e) 00:07:37 (100) 00:27:37 (99) 00:48:47 (102) Partagez votre performance
102 18 BOUAÏTA Rachid BOXE LOUVROIL 00:49:25 M (91e) Master (48e) 00:07:34 (94) 00:28:04 (106) 00:48:57 (103) Partagez votre performance
103 10 ANGOT Pascal 00:49:26 M (92e) Master (49e) 00:07:12 (82) 00:27:48 (104) 00:48:59 (104) Partagez votre performance
104 185 TOEUF Nicolas ENTENTE SAMBRE AVESNOIS 59 00:49:29 M (93e) Senior (38e) 00:07:36 (97) 00:28:06 (107) 00:49:01 (105) Partagez votre performance
105 7 ANGOT Antonia ENTENTE SAMBRE AVESNOIS 59 00:49:43 F (12e) Master (9e) 00:07:36 (98) 00:28:15 (108) 00:49:17 (106) Partagez votre performance
106 190 WASTERLAIN Thomas 00:49:45 M (94e) Espoir (2e) 00:07:21 (90) 00:27:24 (95) 00:49:24 (107) Partagez votre performance
107 67 DUBREUCQ Stephane M C A 00:50:12 M (95e) Master (50e) 00:08:28 (140) 00:29:33 (122) 00:49:45 (108) Partagez votre performance
108 180 SITAL Jimmy JEUMONT ELECTRIC 00:50:14 M (96e) Senior (39e) 00:08:06 (118) 00:28:27 (113) 00:49:47 (110) Partagez votre performance
109 11 AUVENS Stéphane 00:50:15 M (97e) Master (51e) 00:07:16 (86) 00:28:37 (116) 00:49:45 (109) Partagez votre performance
110 12 BEAUQUEL Arnaud 00:50:21 M (98e) Master (52e) 00:07:40 (107) 00:28:42 (117) 00:49:54 (113) Partagez votre performance
111 144 MOREL Sabrina 00:50:22 F (13e) Senior (2e) 00:07:40 (106) 00:28:20 (110) 00:49:52 (112) Partagez votre performance
112 146 NAVIEZ Johann 00:50:30 M (99e) Senior (40e) 00:07:39 (105) 00:28:19 (109) 00:49:52 (111) Partagez votre performance
113 40 COURCIER Didier 00:50:33 M (100e) Master (53e) 00:07:39 (102) 00:28:27 (114) 00:50:05 (114) Partagez votre performance
114 134 MARTIN Eddie MAUBEUGE MARATHON 00:51:00 M (101e) Master (54e) 00:00:00 (0) 00:00:00 (0) 00:00:00 (0) Partagez votre performance
115 136 MATHEZ Emmanuel M C A 00:51:02 M (102e) Master (55e) 00:00:00 (0) 00:00:00 (0) 00:00:00 (0) Partagez votre performance
116 169 QUINZIN Wifried 00:51:05 M (103e) Espoir (3e) 00:07:10 (81) 00:27:39 (100) 00:50:35 (116) Partagez votre performance
117 129 MANSY Fabrice 00:51:10 M (104e) Master (56e) 00:08:13 (126) 00:29:04 (118) 00:50:40 (117) Partagez votre performance
118 198 EDART Jean-Paul Maroilles 00:51:18 M (105e) Master (57e) 00:08:13 (128) 00:29:11 (119) 00:50:51 (118) Partagez votre performance
119 52 DELCROIX Patrice MAUBEUGE MARATHON 00:51:22 M (106e) Master (58e) 00:08:13 (125) 00:29:12 (120) 00:50:52 (119) Partagez votre performance
120 179 SEMSAR Madjid 00:51:29 M (107e) Master (59e) 00:07:12 (83) 00:28:32 (115) 00:51:03 (120) Partagez votre performance
121 189 WALLERAND Bruno 00:51:50 M (108e) Master (60e) 00:08:22 (136) 00:29:17 (121) 00:51:15 (121) Partagez votre performance
122 38 COUPEZ David N S H JEUMONT 00:52:00 M (109e) Master (61e) 00:08:22 (135) 00:29:43 (125) 00:51:30 (122) Partagez votre performance
123 21 BRASSELET Guillaume 00:52:05 M (110e) Senior (41e) 00:08:13 (127) 00:29:42 (123) 00:51:38 (123) Partagez votre performance
124 39 COUPLEUX Gaetan 00:53:06 M (111e) Senior (42e) 00:09:04 (161) 00:31:29 (145) 00:52:45 (124) Partagez votre performance
125 15 BERTRAND Logan BOXE LOUVROIL 00:53:18 M (112e) Junior (2e) 00:07:34 (95) 00:29:42 (124) 00:52:55 (125) Partagez votre performance
126 143 MOREL Nicolas 00:53:35 M (113e) Senior (43e) 00:08:24 (137) 00:30:55 (134) 00:53:07 (128) Partagez votre performance
127 97 HERPHELIN Arlette JEUMONT ELECTRIC 00:53:38 F (14e) Master (10e) 00:08:16 (129) 00:30:07 (127) 00:53:04 (127) Partagez votre performance
128 98 HERPHELIN Philippe JEUMONT ELECTRIC 00:53:38 M (114e) Master (62e) 00:08:19 (130) 00:30:41 (132) 00:53:08 (129) Partagez votre performance
129 192 WILLIAME Tony 00:53:39 M (115e) Master (63e) 00:06:55 (61) 00:26:25 (72) 00:53:03 (126) Partagez votre performance
130 75 DUTREMEE Jerome 00:53:46 M (116e) Senior (44e) 00:08:41 (145) 00:31:51 (153) 00:53:14 (131) Partagez votre performance
131 1 AGOSTI Lorenzo 00:53:49 M (117e) Senior (45e) 00:07:46 (113) 00:29:47 (126) 00:53:12 (130) Partagez votre performance
132 89 GLOBEZ Frederique 00:53:54 F (15e) Master (11e) 00:08:19 (131) 00:30:42 (133) 00:53:23 (132) Partagez votre performance
133 99 HIANNE Jerome MAUBEUGE MARATHON 00:53:58 M (118e) Senior (46e) 00:08:58 (155) 00:31:27 (142) 00:53:31 (133) Partagez votre performance
134 2 AJAX Aude 00:54:04 F (16e) Senior (3e) 00:09:11 (165) 00:31:30 (147) 00:53:32 (135) Partagez votre performance
135 64 DEWYSE Eva MAUBEUGE MARATHON 00:54:04 F (17e) Senior (4e) 00:09:04 (158) 00:31:47 (149) 00:53:31 (134) Partagez votre performance
136 45 CUVILLIER Corinne 00:54:09 F (18e) Master (12e) 00:08:21 (134) 00:31:00 (138) 00:53:38 (137) Partagez votre performance
137 119 LEROY Christian 00:54:09 M (119e) Master (64e) 00:08:21 (133) 00:31:00 (137) 00:53:38 (136) Partagez votre performance
138 175 ROUSSEL Jennifer MAUBEUGE MARATHON 00:54:11 F (19e) Senior (5e) 00:09:04 (160) 00:31:48 (152) 00:53:40 (139) Partagez votre performance
139 29 CAPPOEN Stephane MAUBEUGE MARATHON 00:54:11 M (120e) Master (65e) 00:09:04 (157) 00:31:48 (151) 00:53:40 (138) Partagez votre performance
140 70 DUHAMEL Emmanuelle 00:54:13 F (20e) Master (13e) 00:08:39 (143) 00:30:32 (130) 00:53:42 (140) Partagez votre performance
141 167 QUINZIN Frederic 00:54:21 M (121e) Master (66e) 00:08:34 (141) 00:31:06 (139) 00:53:53 (142) Partagez votre performance
142 197 ZOURAMANE Ouarda 00:54:28 F (21e) Senior (6e) 00:09:09 (164) 00:31:31 (148) 00:53:48 (141) Partagez votre performance
143 200 DUHAMEL Yves 00:54:30 M (122e) Master (67e) 00:08:39 (144) 00:30:34 (131) 00:54:01 (144) Partagez votre performance
144 186 TOUSSAINT Jean noel C A AULNAIE AIMERIES 00:54:33 M (123e) Master (68e) 00:08:07 (120) 00:30:27 (129) 00:54:00 (143) Partagez votre performance
145 19 BOUAM Lachmid 00:54:35 M (124e) Master (69e) 00:09:44 (182) 00:32:42 (164) 00:54:06 (145) Partagez votre performance
146 103 JEAN MARC Heniart ENTENTE SAMBRE AVESNOIS 59 00:54:35 M (125e) Master (70e) 00:09:23 (169) 00:34:24 (172) 00:54:10 (146) Partagez votre performance
147 181 TASSIGNON Frederic 00:54:41 M (126e) Master (71e) 00:08:38 (142) 00:31:10 (141) 00:54:11 (149) Partagez votre performance
148 159 PHILIPPE Yannick MAUBEUGE MARATHON 00:54:45 M (127e) Senior (47e) 00:08:25 (138) 00:30:57 (135) 00:54:11 (147) Partagez votre performance
149 155 PHILIPPE Alexandra MAUBEUGE MARATHON 00:54:46 F (22e) Senior (7e) 00:08:25 (139) 00:30:58 (136) 00:54:11 (148) Partagez votre performance
150 123 LIEMANS Marjorie GYM SANTE 00:54:47 F (23e) Senior (8e) 00:08:46 (149) 00:31:30 (146) 00:54:16 (151) Partagez votre performance
151 94 HADDAD Abdel MAUBEUGE MARATHON 00:54:49 M (128e) Master (72e) 00:09:04 (159) 00:31:48 (150) 00:54:16 (150) Partagez votre performance
152 26 BRUNIAUX Jeremy 00:55:12 M (129e) Senior (48e) 00:07:56 (115) 00:30:26 (128) 00:54:38 (152) Partagez votre performance
153 142 MOLARA Nicolo 00:55:17 M (130e) Senior (49e) 00:08:06 (119) 00:31:06 (140) 00:54:47 (153) Partagez votre performance
154 63 DEWITTE Christelle 00:55:19 F (24e) Senior (9e) 00:08:45 (147) 00:32:00 (155) 00:54:53 (154) Partagez votre performance
155 58 DEMOULIN Delphine 00:55:20 F (25e) Master (14e) 00:08:45 (148) 00:32:00 (156) 00:54:55 (155) Partagez votre performance
156 57 DEMEURE Frédéric 00:55:44 F (26e) Master (15e) 00:09:43 (178) 00:35:11 (178) 00:55:16 (158) Partagez votre performance
157 199 SOUIDI Hocine 00:55:46 M (131e) Master (73e) 00:09:44 (181) 00:32:39 (162) 00:55:14 (156) Partagez votre performance
158 145 MOUNIB Fondail MAUBEUGE MARATHON 00:55:47 M (132e) Master (74e) 00:07:37 (99) 00:31:28 (144) 00:55:15 (157) Partagez votre performance
159 184 THIRY Yannick 00:56:00 M (133e) Master (75e) 00:08:04 (117) 00:32:06 (158) 00:55:31 (160) Partagez votre performance
160 32 CARPENTIER Cecile 00:56:02 F (27e) Senior (10e) 00:09:05 (162) 00:32:28 (160) 00:55:29 (159) Partagez votre performance
161 76 DUTREMEE Nathalie 00:56:12 F (28e) Senior (11e) 00:08:58 (156) 00:32:05 (157) 00:55:35 (161) Partagez votre performance
162 54 DELLEAUX Christophe N S H JEUMONT 00:56:16 M (134e) Master (76e) 00:07:57 (116) 00:31:27 (143) 00:55:42 (162) Partagez votre performance
163 87 GALAND Didier 00:56:18 M (135e) Master (77e) 00:08:48 (150) 00:31:55 (154) 00:55:51 (163) Partagez votre performance
164 164 POTY Isabelle 00:56:38 F (29e) Senior (12e) 00:08:54 (151) 00:32:17 (159) 00:56:09 (164) Partagez votre performance
165 30 CARDINAL Clement GYM SANTE 00:56:58 M (136e) Senior (50e) 00:09:05 (163) 00:33:29 (167) 00:56:30 (165) Partagez votre performance
166 150 OUADOURI Hacène 00:57:07 M (137e) Master (78e) 00:08:56 (152) 00:32:36 (161) 00:56:32 (166) Partagez votre performance
167 85 FREDERIC Gaubeen ENTENTE SAMBRE AVESNOIS 59 00:58:38 M (138e) Senior (51e) 00:09:41 (176) 00:34:08 (168) 00:58:07 (167) Partagez votre performance
168 81 ERNAELSTEEN Pauline MAUBEUGE MARATHON 00:58:39 F (30e) Senior (13e) 00:09:42 (177) 00:34:08 (170) 00:58:07 (168) Partagez votre performance
169 95 HAUTIER Didier G G V 00:58:39 M (139e) Master (79e) 00:09:41 (175) 00:34:08 (169) 00:58:07 (169) Partagez votre performance
170 354 BLONDEAU David 00:59:04 M (140e) Senior (52e) 00:08:57 (154) 00:32:55 (165) 00:58:27 (170) Partagez votre performance
171 118 LEPEZ Brigitte MAUBEUGE MARATHON 00:59:07 F (31e) Master (16e) 00:09:12 (166) 00:33:21 (166) 00:58:29 (171) Partagez votre performance
172 132 MARECHAL Sonia 00:59:50 F (32e) Master (17e) 00:09:45 (183) 00:34:23 (171) 00:59:17 (172) Partagez votre performance
173 5 ALLAIN Aude 01:00:09 F (33e) Senior (14e) 00:09:34 (173) 00:34:37 (175) 00:59:32 (173) Partagez votre performance
174 6 ALLAIN Laure 01:00:14 F (34e) Senior (15e) 00:09:34 (174) 00:34:37 (176) 00:59:40 (174) Partagez votre performance
175 171 REZIG Fiala MAUBEUGE MARATHON 01:00:35 F (35e) Senior (16e) 00:09:17 (167) 00:59:38 (191) 00:00:00 (0) Partagez votre performance
176 163 POTTIER Pascal MAUBEUGE MARATHON 01:00:56 M (141e) Master (80e) 00:09:22 (168) 00:34:24 (173) 01:00:19 (175) Partagez votre performance
177 111 LALLAIN Mickael 01:00:56 M (142e) Senior (53e) 00:09:24 (170) 00:34:35 (174) 01:00:20 (176) Partagez votre performance
178 3 AJAX David 01:02:03 M (143e) Master (81e) 00:09:33 (172) 00:35:03 (177) 01:01:27 (177) Partagez votre performance
179 139 MENU Robert 01:02:11 M (144e) Master (82e) 00:08:41 (146) 00:32:39 (163) 01:01:31 (178) Partagez votre performance
180 122 LEVEAU Geoffrey 01:02:15 M (145e) Master (83e) 00:09:43 (179) 00:35:19 (180) 01:01:38 (179) Partagez votre performance
181 177 SAINT HUILE Benjamin 01:02:41 M (146e) Senior (54e) 00:09:43 (180) 00:35:20 (181) 01:02:07 (180) Partagez votre performance
182 172 RIVES-HANNEQUART Barbara 01:04:21 F (36e) Senior (17e) 00:08:56 (153) 00:35:18 (179) 01:03:47 (181) Partagez votre performance
183 80 ERBICELLA Stephanie GYM SANTE 01:04:46 F (37e) Senior (18e) 00:10:43 (190) 00:38:39 (187) 01:04:12 (182) Partagez votre performance
184 128 MANNARINO Micheline MAUBEUGE MARATHON 01:06:03 F (38e) Master (18e) 00:09:57 (187) 00:37:05 (182) 01:05:23 (184) Partagez votre performance
185 105 JORIS Patrizia MAUBEUGE MARATHON 01:06:04 F (39e) Master (19e) 00:09:57 (186) 00:37:05 (183) 01:05:23 (183) Partagez votre performance
186 31 CARLIER - TDC Magali 01:07:19 F (40e) Senior (19e) 00:10:32 (188) 00:38:39 (185) 01:06:30 (185) Partagez votre performance
187 79 ENSERET Laura GYM SANTE 01:07:30 F (41e) Senior (20e) 00:10:42 (189) 00:38:39 (186) 01:06:54 (186) Partagez votre performance
188 68 DUCARNE Christine GYM SANTE 01:07:30 F (42e) Senior (21e) 00:10:44 (191) 00:38:39 (188) 01:06:54 (187) Partagez votre performance
189 55 DELMOTTE Valerie ENTENTE SAMBRE AVESNOIS 59 01:07:44 F (43e) Master (20e) 00:09:53 (185) 00:37:29 (184) 01:07:03 (188) Partagez votre performance
190 16 BONTINCK Coralie 01:09:37 F (44e) Senior (22e) 00:09:45 (184) 00:38:39 (189) 01:08:59 (189) Partagez votre performance
191 24 BRICOUT Melanie GYM SANTE 01:11:18 F (45e) Senior (23e) 00:09:27 (171) 00:39:20 (190) 01:10:35 (190) Partagez votre performance
DNS 25 BRUET Dominique 00:00:00 M (0e) Master (0e) 00:00:00 (0) 00:00:00 (0) 00:00:00 (0)
DNS 50 DEGAIGNE Nicolas 00:00:00 M (0e) Master (0e) 00:00:00 (0) 00:00:00 (0) 00:00:00 (0)
DNS 56 DEMARQUET Michel VALENCIENNES TRIATHLON 00:00:00 M (0e) Master (0e) 00:00:00 (0) 00:00:00 (0) 00:00:00 (0)
DNS 65 DUBOIS Geraldine GYM SANTE 00:00:00 F (0e) Master (0e) 00:00:00 (0) 00:00:00 (0) 00:00:00 (0)
DNS 66 DUBRAY Yannick 00:00:00 M (0e) Senior (0e) 00:00:00 (0) 00:00:00 (0) 00:00:00 (0)
DNS 90 GLOBEZ Pascal 00:00:00 M (0e) Master (0e) 00:00:00 (0) 00:00:00 (0) 00:00:00 (0)
DNS 107 KALAD Birrou 00:00:00 M (0e) Senior (0e) 00:00:00 (0) 00:00:00 (0) 00:00:00 (0)
DNS 130 MARCEL Beaussart 00:00:00 M (0e) Master (0e) 00:00:00 (0) 00:00:00 (0) 00:00:00 (0)
DNS 154 PELLERIAUX Thomas ENDURANCE PONTOISE 00:00:00 M (0e) Senior (0e) 00:00:00 (0) 00:00:00 (0) 00:00:00 (0)
DNS 194 YVES Duhamel 00:00:00 M (0e) Master (0e) 00:00:00 (0) 00:00:00 (0) 00:00:00 (0)
DNS 48 DANEL David MAUBEUGE MARATHON 00:00:00 M (0e) Senior (0e) 00:06:36 (46) 00:23:01 (27) 00:40:11 (29)
DNS 140 MERELLE Gregory 00:00:00 M (0e) Senior (0e) 00:07:39 (104) 00:28:25 (111) 00:50:10 (115)


5km
Clt Athlète Club Temps Sexe Cat.
1 206 BRIKI Hicham SAINT AMAND LES EAUX 00:14:58 M (1e) Senior (1e) Partagez votre performance
2 243 LAASRI Abdouallah GAYANT ATHLETISME 00:16:20 M (2e) Espoir (1e) Partagez votre performance
3 259 POULET Stephane ENTENTE SAMBRE AVESNOIS 59 00:16:34 M (3e) Master (1e) Partagez votre performance
4 201 ALLALOU Mohamed FOND DU CATEAU 00:16:58 M (4e) Master (2e) Partagez votre performance
5 257 MERCIER Hugo ENTENTE SAMBRE AVESNOIS 59 00:17:14 M (5e) Senior (2e) Partagez votre performance
6 211 CORNU Simon UNION CAUDRY ATHLETISME 00:17:45 M (6e) Senior (3e) Partagez votre performance
7 228 ERRADI Ismael BOXE LOUVROIL 00:17:55 M (7e) Master (3e) Partagez votre performance
8 240 KHERBA Abdellah ENTENTE SAMBRE AVESNOIS 59 00:18:03 M (8e) Master (4e) Partagez votre performance
9 233 GAUBEN Frederic ENTENTE SAMBRE AVESNOIS 59 00:18:19 M (9e) Senior (4e) Partagez votre performance
10 239 HENON Orphée 00:18:20 M (10e) Espoir (2e) Partagez votre performance
11 269 WAUTRIN Jérome BOXE LOUVROIL 00:18:23 M (11e) Senior (5e) Partagez votre performance
12 236 GRAZZY Jimmy 00:19:06 M (12e) Master (5e) Partagez votre performance
13 225 DUHAMEL Sandrine ENTENTE SAMBRE AVESNOIS 59 00:19:10 F (1e) Master (1e) Partagez votre performance
14 223 DIRONT Patrick JEUMONT ELECTRIC 00:19:18 M (13e) Master (6e) Partagez votre performance
15 218 DELCAMBRE Alexandre BOXE LOUVROIL 00:19:29 M (14e) Junior (1e) Partagez votre performance
16 265 TABBECH Yacine S/L US MAUBEUGE ATHLETISME 00:19:29 M (15e) Cadet (1e) Partagez votre performance
17 262 SILVA Antoine ENTENTE SAMBRE AVESNOIS 59 00:19:35 M (16e) Junior (2e) Partagez votre performance
18 210 COPY Francine ENTENTE SAMBRE AVESNOIS 59 00:19:52 F (2e) Master (2e) Partagez votre performance
19 270 RENAUD Vincent CO TRITH 00:20:00 M (17e) Master (7e) Partagez votre performance
20 238 GUERRIER Franck M C A 00:20:07 M (18e) Master (8e) Partagez votre performance
21 260 SCHEPENS Alexandre 00:20:07 M (19e) Senior (6e) Partagez votre performance
22 207 BRINKFIELD Haeita ENTENTE SAMBRE AVESNOIS 59 00:21:10 F (3e) Senior (1e) Partagez votre performance
23 261 SENECAIL Davy 00:21:41 M (20e) Minime (1e) Partagez votre performance
24 231 FONTAINE Jean francois 00:22:15 M (21e) Master (9e) Partagez votre performance
25 241 KONECZNY Matthieu 00:22:49 M (22e) Senior (7e) Partagez votre performance
26 235 GRAZZI Spohie 00:22:50 F (4e) Master (3e) Partagez votre performance
27 263 SILVA Christine ENTENTE SAMBRE AVESNOIS 59 00:22:55 F (5e) Master (4e) Partagez votre performance
28 219 DELLEAUX Maxence N S H JEUMONT 00:23:47 M (23e) Minime (2e) Partagez votre performance
29 203 BOUAÏTA Rachid BOXE LOUVROIL 00:24:25 M (24e) Master (10e) Partagez votre performance
30 215 DE POORTER Tiphanie NSAEC 00:24:51 F (6e) Senior (2e) Partagez votre performance
31 256 MENET Guillaume 00:25:28 M (25e) Senior (8e) Partagez votre performance
32 264 SPRIMONT Jacky ENTENTE SAMBRE AVESNOIS 59 00:25:41 M (26e) Master (11e) Partagez votre performance
33 227 ERNAELSTEEN Pauline MAUBEUGE MARATHON 00:25:50 F (7e) Senior (3e) Partagez votre performance
34 209 CLASSE Stephane M C A 00:27:02 M (27e) Master (12e) Partagez votre performance
35 246 LEGRAND Laure 00:27:10 F (8e) Espoir (1e) Partagez votre performance
36 204 BOUVART Cedric ENTENTE SAMBRE AVESNOIS 59 00:27:15 M (28e) Senior (9e) Partagez votre performance
37 217 DEGROOTE Christophe 00:28:05 M (29e) Master (13e) Partagez votre performance
38 237 GUERRIER Elodie M C A 00:28:22 F (9e) Senior (4e) Partagez votre performance
39 229 ERRADI Younes BOXE LOUVROIL 00:28:25 M (30e) Minime (3e) Partagez votre performance
40 226 ERNAELSTEEN Didier 00:28:32 M (31e) Master (14e) Partagez votre performance
41 267 VANDAMME Betty 00:29:00 F (10e) Senior (5e) Partagez votre performance
42 234 GILLOTEAU Olivier 00:29:01 M (32e) Senior (10e) Partagez votre performance
43 247 LEGRAND Thierry 00:29:20 M (33e) Master (15e) Partagez votre performance
44 214 DANCOT Andre 00:29:42 M (34e) Master (16e) Partagez votre performance
45 254 MATIGNON Isabelle 00:29:51 F (11e) Master (5e) Partagez votre performance
46 268 VANDEKERCKOVE Celine M C A 00:30:52 F (12e) Senior (6e) Partagez votre performance
47 213 COUPEZ Romane N S H JEUMONT 00:31:29 F (13e) Benjamin (1e) Partagez votre performance
48 255 MEERT Laurie N S H JEUMONT 00:31:31 F (14e) Benjamin (2e) Partagez votre performance
49 216 DEBLANCK Stephanie GYM SANTE 00:31:33 M (35e) Senior (11e) Partagez votre performance
50 253 LOURDAIS Valerie GYM SANTE 00:31:34 F (15e) Master (6e) Partagez votre performance
51 205 BRAVIN Sandrine GYM SANTE 00:31:35 F (16e) Master (7e) Partagez votre performance
52 271 PONCELET Danny 00:32:47 M (36e) Senior (12e) Partagez votre performance
53 202 BERNARD Floriane 00:32:48 F (17e) Senior (7e) Partagez votre performance
54 250 LEVAUX Corentin 00:33:41 M (37e) Minime (4e) Partagez votre performance
55 248 LEJEUNE Blandine 00:33:56 F (18e) Senior (8e) Partagez votre performance
56 251 LEVAUX Sandrine 00:34:04 F (19e) Master (8e) Partagez votre performance
57 258 MICHEL Valerie 00:34:08 F (20e) Master (9e) Partagez votre performance
58 249 LEVAUX Cathy 00:34:11 F (21e) Master (10e) Partagez votre performance
59 252 LOISEAU Emeline 00:34:11 F (22e) Espoir (2e) Partagez votre performance
60 242 LA IACONA Justine 00:34:12 F (23e) Senior (9e) Partagez votre performance
61 245 LEFEBVRE Anais GYM SANTE 00:34:26 F (24e) Senior (10e) Partagez votre performance
62 212 COUPEZ Helene N S H JEUMONT 00:34:44 F (25e) Master (11e) Partagez votre performance
63 222 DELSART Angel e GYM SANTE 00:35:58 F (26e) Senior (11e) Partagez votre performance
64 224 DUBOIS Ophelie GYM SANTE 00:37:12 F (27e) Senior (12e) Partagez votre performance
65 208 CASSET Elize N S H JEUMONT 00:40:12 F (28e) Benjamin (3e) Partagez votre performance
66 221 DELLEAUX Sabine N S H JEUMONT 00:41:36 F (29e) Senior (13e) Partagez votre performance
67 220 DELLEAUX Pauline N S H JEUMONT 00:46:50 F (30e) Espoir (3e) Partagez votre performance
DNS 230 FILLIEUX Melanie 00:00:00 F (0e) Senior (0e)
DNS 232 GABELLE Cecile 00:00:00 F (0e) Senior (0e)
DNS 244 LALLAIN Oceane ENTENTE SAMBRE AVESNOIS 59 00:00:00 F (0e) Minime (0e)
DNS 266 TABBECH Yacine S/L US MAUBEUGE ATHLETISME 00:00:00 M (0e) Cadet (0e)